createdAt,value
2023-03-25T00:01:39.207Z,7.04
2023-03-25T00:04:07.624Z,7.00
2023-03-25T00:06:36.113Z,6.98
2023-03-25T00:09:04.816Z,6.93
2023-03-25T00:12:01.387Z,6.91
2023-03-25T00:14:34.141Z,6.88
2023-03-25T00:17:03.273Z,6.91
2023-03-25T00:19:32.513Z,6.84
2023-03-25T00:22:03.034Z,6.72
2023-03-25T00:24:31.482Z,6.61
2023-03-25T00:27:00.133Z,6.53
2023-03-25T00:29:29.293Z,6.48
2023-03-25T00:31:57.809Z,6.44
2023-03-25T00:34:26.647Z,6.41
2023-03-25T00:36:57.068Z,6.39
2023-03-25T00:39:28.720Z,6.41
2023-03-25T00:41:57.614Z,6.40
2023-03-25T00:44:30.129Z,6.38
2023-03-25T00:47:00.321Z,6.36
2023-03-25T00:49:32.773Z,6.34
2023-03-25T00:52:02.174Z,6.32
2023-03-25T00:54:34.623Z,6.31
2023-03-25T00:57:03.571Z,6.26
2023-03-25T00:59:32.518Z,6.21
2023-03-25T01:02:06.682Z,6.19
2023-03-25T01:04:41.465Z,6.16
2023-03-25T01:07:11.555Z,6.16
2023-03-25T01:09:43.649Z,6.13
2023-03-25T01:12:40.357Z,6.09
2023-03-25T01:15:11.427Z,6.04
2023-03-25T01:17:40.305Z,6.02
2023-03-25T01:20:12.366Z,6.01
2023-03-25T01:22:43.748Z,6.00
2023-03-25T01:25:15.696Z,6.03
2023-03-25T01:27:44.661Z,6.10
2023-03-25T01:30:14.563Z,6.14
2023-03-25T01:32:43.509Z,6.16
2023-03-25T01:35:17.362Z,6.13
2023-03-25T01:37:50.526Z,6.08
2023-03-25T01:40:24.301Z,6.04
2023-03-25T01:42:55.436Z,6.01
2023-03-25T01:45:31.122Z,6.03
2023-03-25T01:48:10.812Z,6.02
2023-03-25T01:50:44.299Z,6.00
2023-03-25T01:53:13.788Z,6.00
2023-03-25T01:55:48.157Z,6.00
2023-03-25T01:58:24.940Z,6.01
2023-03-25T02:00:56.349Z,6.02
2023-03-25T02:03:26.504Z,6.06
2023-03-25T02:06:32.500Z,6.09
2023-03-25T02:09:09.400Z,6.12
2023-03-25T02:11:40.826Z,6.06
2023-03-25T02:14:15.456Z,6.09
2023-03-25T02:17:05.279Z,6.09
2023-03-25T02:20:14.257Z,6.04
2023-03-25T02:23:22.326Z,6.03
2023-03-25T02:26:27.862Z,6.04
2023-03-25T02:29:05.884Z,6.01
2023-03-25T02:32:25.393Z,6.03
2023-03-25T02:35:30.739Z,6.03
2023-03-25T02:38:20.212Z,5.98
2023-03-25T02:41:05.320Z,5.95
2023-03-25T02:43:51.112Z,5.99
2023-03-25T02:46:23.920Z,6.06
2023-03-25T02:49:19.944Z,6.06
2023-03-25T02:51:55.081Z,6.07
2023-03-25T02:54:26.255Z,6.08
2023-03-25T02:56:57.912Z,6.09
2023-03-25T02:59:33.543Z,6.08
2023-03-25T03:02:11.984Z,6.07
2023-03-25T03:04:53.515Z,6.04
2023-03-25T03:07:33.794Z,5.95
2023-03-25T03:10:19.813Z,5.94
2023-03-25T03:12:59.968Z,5.96
2023-03-25T03:15:42.907Z,5.96
2023-03-25T03:18:27.637Z,5.92
2023-03-25T03:21:14.464Z,5.89
2023-03-25T03:24:06.645Z,5.85
2023-03-25T03:26:53.669Z,5.76
2023-03-25T03:29:32.141Z,5.70
2023-03-25T03:32:17.051Z,5.64
2023-03-25T03:34:59.294Z,5.55
2023-03-25T03:37:37.734Z,5.49
2023-03-25T03:40:10.814Z,5.46
2023-03-25T03:42:47.344Z,5.41
2023-03-25T03:45:29.963Z,5.40
2023-03-25T03:48:02.974Z,5.35
2023-03-25T03:50:40.048Z,5.30
2023-03-25T03:53:31.267Z,5.25
2023-03-25T03:56:06.474Z,5.24
2023-03-25T03:58:59.866Z,5.24
2023-03-25T04:01:54.967Z,5.33
2023-03-25T04:04:28.603Z,5.37
2023-03-25T04:07:15.101Z,5.41
2023-03-25T04:09:56.936Z,5.46
2023-03-25T04:12:42.014Z,5.47
2023-03-25T04:15:12.507Z,5.49
2023-03-25T04:17:41.455Z,5.51
2023-03-25T04:20:24.212Z,5.51
2023-03-25T04:22:54.050Z,5.50
2023-03-25T04:25:25.506Z,5.48
2023-03-25T04:27:59.235Z,5.42
2023-03-25T04:30:31.438Z,5.38
2023-03-25T04:33:00.964Z,5.34
2023-03-25T04:35:33.331Z,5.35
2023-03-25T04:38:02.304Z,5.36
2023-03-25T04:40:33.816Z,5.40
2023-03-25T04:43:02.665Z,5.46
2023-03-25T04:45:36.907Z,5.51
2023-03-25T04:48:20.288Z,5.55
2023-03-25T04:50:49.274Z,5.59
2023-03-25T04:53:19.688Z,5.57
2023-03-25T04:55:50.229Z,5.54
2023-03-25T04:58:18.908Z,5.51
2023-03-25T05:00:51.308Z,5.49
2023-03-25T05:03:24.881Z,5.46
2023-03-25T05:05:54.249Z,5.45
2023-03-25T05:08:22.987Z,5.45
2023-03-25T05:10:52.889Z,5.49
2023-03-25T05:14:03.348Z,5.54
2023-03-25T05:16:33.666Z,5.55
2023-03-25T05:19:04.198Z,5.54
2023-03-25T05:21:38.727Z,5.55
2023-03-25T05:24:10.696Z,5.57
2023-03-25T05:26:43.632Z,5.63
2023-03-25T05:29:15.036Z,5.71
2023-03-25T05:31:47.335Z,5.84
2023-03-25T05:34:22.408Z,5.96
2023-03-25T05:36:51.436Z,6.08
2023-03-25T05:39:20.885Z,6.18
2023-03-25T05:41:52.841Z,6.24
2023-03-25T05:44:26.039Z,6.29
2023-03-25T05:46:55.102Z,6.33
2023-03-25T05:49:27.203Z,6.36
2023-03-25T05:51:56.459Z,6.45
2023-03-25T05:54:25.785Z,6.52
2023-03-25T05:56:54.426Z,6.57
2023-03-25T05:59:23.288Z,6.65
2023-03-25T06:01:52.339Z,6.73
2023-03-25T06:04:22.127Z,6.82
2023-03-25T06:06:52.177Z,6.96
2023-03-25T06:09:21.828Z,7.02
2023-03-25T06:12:52.749Z,7.01
2023-03-25T06:15:34.076Z,7.04
2023-03-25T06:18:03.251Z,7.12
2023-03-25T06:20:33.891Z,7.27
2023-03-25T06:23:10.325Z,7.43
2023-03-25T06:25:40.280Z,7.43
2023-03-25T06:28:09.149Z,7.44
2023-03-25T06:30:38.747Z,7.52
2023-03-25T06:33:07.052Z,7.59
2023-03-25T06:35:36.964Z,7.61
2023-03-25T06:38:05.876Z,7.66
2023-03-25T06:40:35.419Z,7.78
2023-03-25T06:43:07.487Z,7.89
2023-03-25T06:45:36.472Z,7.93
2023-03-25T06:48:06.080Z,7.97
2023-03-25T06:50:34.827Z,8.02
2023-03-25T06:53:03.932Z,8.10
2023-03-25T06:55:32.684Z,8.18
2023-03-25T06:58:16.959Z,8.22
2023-03-25T07:00:55.263Z,8.24
2023-03-25T07:03:25.161Z,8.24
2023-03-25T07:05:54.093Z,8.26
2023-03-25T07:08:22.774Z,8.34
2023-03-25T07:10:51.243Z,8.35
2023-03-25T07:13:21.071Z,8.30
2023-03-25T07:15:49.993Z,8.31
2023-03-25T07:18:19.174Z,8.34
2023-03-25T07:20:49.108Z,8.42
2023-03-25T07:23:17.525Z,8.69
2023-03-25T07:25:47.332Z,8.95
2023-03-25T07:28:16.760Z,9.01
2023-03-25T07:30:45.562Z,9.03
2023-03-25T07:33:14.146Z,9.03
2023-03-25T07:35:43.251Z,9.08
2023-03-25T07:38:12.150Z,9.22
2023-03-25T07:40:40.777Z,9.46
2023-03-25T07:43:09.639Z,9.73
2023-03-25T07:45:55.930Z,9.88
2023-03-25T07:48:25.009Z,10.10
2023-03-25T07:50:54.151Z,10.32
2023-03-25T07:53:23.718Z,10.63
2023-03-25T07:55:52.518Z,11.05
2023-03-25T07:58:21.428Z,11.56
2023-03-25T08:00:50.781Z,12.30
2023-03-25T08:03:19.374Z,12.98
2023-03-25T08:05:49.165Z,13.68
2023-03-25T08:08:17.820Z,14.47
2023-03-25T08:10:48.439Z,15.71
2023-03-25T08:13:16.959Z,16.37
2023-03-25T08:15:46.051Z,16.46
2023-03-25T08:18:15.961Z,16.52
2023-03-25T08:20:44.400Z,16.75
2023-03-25T08:23:20.288Z,16.79
2023-03-25T08:25:51.566Z,16.27
2023-03-25T08:28:23.648Z,15.78
2023-03-25T08:30:56.183Z,15.63
2023-03-25T08:33:27.833Z,15.64
2023-03-25T08:35:58.183Z,15.57
2023-03-25T08:38:34.288Z,16.31
2023-03-25T08:41:03.831Z,17.47
2023-03-25T08:43:32.912Z,18.46
2023-03-25T08:46:01.452Z,18.75
2023-03-25T08:48:31.228Z,18.30
2023-03-25T08:51:00.014Z,17.98
2023-03-25T08:53:28.524Z,18.37
2023-03-25T08:55:59.264Z,19.24
2023-03-25T08:58:28.534Z,20.60
2023-03-25T09:00:58.309Z,20.57
2023-03-25T09:03:27.661Z,19.24
2023-03-25T09:05:57.243Z,18.19
2023-03-25T09:08:25.783Z,17.80
2023-03-25T09:10:56.756Z,18.02
2023-03-25T09:13:25.860Z,18.75
2023-03-25T09:15:54.663Z,19.02
2023-03-25T09:18:23.847Z,19.50
2023-03-25T09:20:58.454Z,19.99
2023-03-25T09:23:27.692Z,20.03
2023-03-25T09:26:02.134Z,20.42
2023-03-25T09:28:31.580Z,20.65
2023-03-25T09:31:00.087Z,21.07
2023-03-25T09:33:29.071Z,21.31
2023-03-25T09:35:57.634Z,20.90
2023-03-25T09:38:26.634Z,20.24
2023-03-25T09:40:55.719Z,21.89
2023-03-25T09:43:46.583Z,23.18
2023-03-25T09:46:15.389Z,23.13
2023-03-25T09:48:47.469Z,23.15
2023-03-25T09:51:34.033Z,22.01
2023-03-25T09:54:15.244Z,20.51
2023-03-25T09:56:45.017Z,19.09
2023-03-25T09:59:33.567Z,17.86
2023-03-25T10:02:08.108Z,16.87
2023-03-25T10:05:04.770Z,16.09
2023-03-25T10:07:33.286Z,15.80
2023-03-25T10:10:18.986Z,17.47
2023-03-25T10:12:53.606Z,18.80
2023-03-25T10:16:27.543Z,21.28
2023-03-25T10:19:11.771Z,23.67
2023-03-25T10:30:47.228Z,19.20
2023-03-25T10:41:04.501Z,16.35
2023-03-25T10:46:28.014Z,16.53
2023-03-25T10:48:55.541Z,17.01
2023-03-25T10:54:20.635Z,16.97
2023-03-25T10:56:55.864Z,16.53
2023-03-25T10:59:32.683Z,16.22
2023-03-25T11:02:12.694Z,16.23
2023-03-25T11:04:45.207Z,16.07
2023-03-25T11:07:33.240Z,15.83
2023-03-25T11:10:14.959Z,15.46
2023-03-25T11:12:48.504Z,15.13
2023-03-25T11:15:35.199Z,14.85
2023-03-25T11:18:13.454Z,14.62
2023-03-25T11:21:04.909Z,14.42
2023-03-25T11:23:36.828Z,14.36
2023-03-25T11:26:24.551Z,14.35
2023-03-25T11:29:02.913Z,14.14
2023-03-25T11:31:37.164Z,13.75
2023-03-25T11:34:20.908Z,13.44
2023-03-25T11:36:57.786Z,13.06
2023-03-25T11:39:33.192Z,12.86
2023-03-25T11:42:17.619Z,12.82
2023-03-25T11:44:54.220Z,12.85
2023-03-25T11:47:27.480Z,12.90
2023-03-25T11:49:56.183Z,12.87
2023-03-25T11:52:29.270Z,12.55
2023-03-25T11:54:57.991Z,12.07
2023-03-25T11:57:32.790Z,11.69
2023-03-25T12:00:12.743Z,11.37
2023-03-25T12:02:41.887Z,11.07
2023-03-25T12:05:14.764Z,10.83
2023-03-25T12:07:45.907Z,10.55
2023-03-25T12:10:34.775Z,10.38
2023-03-25T12:13:17.369Z,10.29
2023-03-25T12:15:46.026Z,10.33
2023-03-25T12:18:44.059Z,10.41
2023-03-25T12:21:57.785Z,10.53
2023-03-25T12:24:44.275Z,10.71
2023-03-25T12:27:44.573Z,11.14
2023-03-25T12:30:21.998Z,11.78
2023-03-25T12:32:59.816Z,12.42
2023-03-25T12:35:57.541Z,13.26
2023-03-25T12:39:00.648Z,13.24
2023-03-25T12:41:34.305Z,13.10
2023-03-25T12:44:11.417Z,13.43
2023-03-25T12:47:09.561Z,14.39
2023-03-25T12:50:01.552Z,15.79
2023-03-25T12:52:43.485Z,15.90
2023-03-25T12:55:53.895Z,15.70
2023-03-25T12:59:08.605Z,15.03
2023-03-25T13:02:14.687Z,14.46
2023-03-25T13:04:49.449Z,14.04
2023-03-25T13:07:27.798Z,13.74
2023-03-25T13:10:31.593Z,13.66
2023-03-25T13:13:03.614Z,13.56
2023-03-25T13:16:08.297Z,13.37
2023-03-25T13:18:54.250Z,13.21
2023-03-25T13:21:29.340Z,13.12
2023-03-25T13:24:08.295Z,13.05
2023-03-25T13:26:40.431Z,12.94
2023-03-25T13:29:29.497Z,12.96
2023-03-25T13:32:03.596Z,13.15
2023-03-25T13:34:44.333Z,13.42
2023-03-25T13:37:36.229Z,13.69
2023-03-25T13:40:33.864Z,13.83
2023-03-25T13:43:33.732Z,13.90
2023-03-25T13:46:16.975Z,13.89
2023-03-25T13:49:36.629Z,13.79
2023-03-25T13:52:09.746Z,13.61
2023-03-25T13:54:52.665Z,13.23
2023-03-25T13:57:42.908Z,12.89
2023-03-25T14:01:08.175Z,12.48
2023-03-25T14:03:59.218Z,11.87
2023-03-25T14:07:18.529Z,11.29
2023-03-25T14:11:10.357Z,10.63
2023-03-25T14:14:23.423Z,10.24
2023-03-25T14:17:19.146Z,10.23
2023-03-25T14:19:55.680Z,10.41
2023-03-25T14:22:29.467Z,10.64
2023-03-25T14:24:59.247Z,11.10
2023-03-25T14:27:35.708Z,11.56
2023-03-25T14:30:29.066Z,11.87
2023-03-25T14:33:04.423Z,12.13
2023-03-25T14:35:34.164Z,12.23
2023-03-25T14:38:07.243Z,12.23
2023-03-25T14:40:50.734Z,12.27
2023-03-25T14:43:47.569Z,12.25
2023-03-25T14:46:24.915Z,12.10
2023-03-25T14:49:22.894Z,11.93
2023-03-25T14:51:58.689Z,11.74
2023-03-25T14:54:37.069Z,11.59
2023-03-25T14:57:40.380Z,11.36
2023-03-25T15:00:31.739Z,11.08
2023-03-25T15:03:18.092Z,10.83
2023-03-25T15:06:00.726Z,10.70
2023-03-25T15:08:45.563Z,10.59
2023-03-25T15:11:17.266Z,10.56
2023-03-25T15:14:13.837Z,10.58
2023-03-25T15:17:15.271Z,10.72
2023-03-25T15:19:59.927Z,10.84
2023-03-25T15:22:29.548Z,10.92
2023-03-25T15:25:19.696Z,11.01
2023-03-25T15:34:46.172Z,11.13
2023-03-25T15:37:45.496Z,11.21
2023-03-25T15:40:29.247Z,11.31
2023-03-25T15:43:02.415Z,11.44
2023-03-25T15:45:50.136Z,11.64
2023-03-25T15:48:24.549Z,11.84
2023-03-25T15:51:16.181Z,11.95
2023-03-25T15:54:32.883Z,11.96
2023-03-25T15:57:30.372Z,11.92
2023-03-25T16:00:21.070Z,11.84
2023-03-25T16:02:59.400Z,11.75
2023-03-25T16:05:31.367Z,11.69
2023-03-25T16:08:07.860Z,11.63
2023-03-25T16:10:37.753Z,11.55
2023-03-25T16:14:22.263Z,11.47
2023-03-25T16:16:59.047Z,11.28
2023-03-25T16:19:40.260Z,11.15
2023-03-25T16:22:22.238Z,11.05
2023-03-25T16:24:51.802Z,10.94
2023-03-25T16:27:34.303Z,10.86
2023-03-25T16:30:18.957Z,10.81
2023-03-25T16:32:47.555Z,10.75
2023-03-25T16:35:25.582Z,10.69
2023-03-25T16:37:58.804Z,10.62
2023-03-25T16:40:44.021Z,10.59
2023-03-25T16:43:24.018Z,10.56
2023-03-25T16:46:04.760Z,10.51
2023-03-25T16:48:37.255Z,10.47
2023-03-25T16:51:20.764Z,10.43
2023-03-25T16:54:00.175Z,10.40
2023-03-25T16:56:34.775Z,10.34
2023-03-25T16:59:08.469Z,10.29
2023-03-25T17:01:43.179Z,10.27
2023-03-25T17:04:27.089Z,10.13
2023-03-25T17:07:01.724Z,9.98
2023-03-25T17:09:40.599Z,9.89
2023-03-25T17:12:19.972Z,9.90
2023-03-25T17:14:51.276Z,9.92
2023-03-25T17:17:23.573Z,9.92
2023-03-25T17:19:53.863Z,9.90
2023-03-25T17:22:32.738Z,9.88
2023-03-25T17:25:37.263Z,9.85
2023-03-25T17:28:32.848Z,9.77
2023-03-25T17:31:20.470Z,9.69
2023-03-25T17:33:52.914Z,9.62
2023-03-25T17:36:22.392Z,9.56
2023-03-25T17:38:54.446Z,9.53
2023-03-25T17:41:36.682Z,9.51
2023-03-25T17:44:10.211Z,9.49
2023-03-25T17:46:39.895Z,9.50
2023-03-25T17:49:20.383Z,9.49
2023-03-25T17:51:51.530Z,9.50
2023-03-25T17:54:21.009Z,9.50
2023-03-25T17:56:52.333Z,9.51
2023-03-25T17:59:25.788Z,9.51
2023-03-25T18:01:55.414Z,9.51
2023-03-25T18:04:26.094Z,9.47
2023-03-25T18:06:55.997Z,9.44
2023-03-25T18:09:27.841Z,9.44
2023-03-25T18:12:19.628Z,9.43
2023-03-25T18:14:51.107Z,9.43
2023-03-25T18:17:20.310Z,9.43
2023-03-25T18:19:49.906Z,9.44
2023-03-25T18:22:20.439Z,9.43
2023-03-25T18:24:53.467Z,9.37
2023-03-25T18:27:33.531Z,9.30
2023-03-25T18:30:42.795Z,9.22
2023-03-25T18:33:17.385Z,9.13
2023-03-25T18:35:48.767Z,9.07
2023-03-25T18:38:25.160Z,8.97
2023-03-25T18:40:57.729Z,8.91
2023-03-25T18:43:31.269Z,8.86
2023-03-25T18:46:16.491Z,8.82
2023-03-25T18:48:49.053Z,8.73
2023-03-25T18:51:18.870Z,8.67
2023-03-25T18:53:51.296Z,8.61
2023-03-25T18:56:21.820Z,8.56
2023-03-25T18:58:54.201Z,8.53
2023-03-25T19:01:24.755Z,8.51
2023-03-25T19:03:54.170Z,8.49
2023-03-25T19:06:25.000Z,8.48
2023-03-25T19:08:54.909Z,8.48
2023-03-25T19:11:31.064Z,8.48
2023-03-25T19:14:01.288Z,8.48
2023-03-25T19:16:31.630Z,8.48
2023-03-25T19:19:04.089Z,8.47
2023-03-25T19:21:38.869Z,8.47
2023-03-25T19:24:09.531Z,8.41
2023-03-25T19:26:48.778Z,8.28
2023-03-25T19:29:20.490Z,8.05
2023-03-25T19:32:25.479Z,7.80
2023-03-25T19:35:05.226Z,7.65
2023-03-25T19:37:58.456Z,7.53
2023-03-25T19:40:37.131Z,7.45
2023-03-25T19:43:14.298Z,7.38
2023-03-25T19:45:48.254Z,7.36
2023-03-25T19:48:19.505Z,7.33
2023-03-25T19:50:49.838Z,7.30
2023-03-25T19:53:21.720Z,7.28
2023-03-25T19:55:55.240Z,7.20
2023-03-25T19:58:26.589Z,7.21
2023-03-25T20:00:58.346Z,7.25
2023-03-25T20:03:31.697Z,7.24
2023-03-25T20:06:07.360Z,7.16
2023-03-25T20:08:40.089Z,7.09
2023-03-25T20:11:14.186Z,7.02
2023-03-25T20:13:50.657Z,6.93
2023-03-25T20:16:25.014Z,6.83
2023-03-25T20:18:56.665Z,6.76
2023-03-25T20:21:29.616Z,6.66
2023-03-25T20:24:01.794Z,6.57
2023-03-25T20:26:31.840Z,6.54
2023-03-25T20:29:05.105Z,6.52
2023-03-25T20:31:36.915Z,6.49
2023-03-25T20:34:08.481Z,6.38
2023-03-25T20:36:39.474Z,6.25
2023-03-25T20:39:12.092Z,6.09
2023-03-25T20:41:50.196Z,5.97
2023-03-25T20:44:22.320Z,5.93
2023-03-25T20:47:00.326Z,5.87
2023-03-25T20:49:41.752Z,5.83
2023-03-25T20:52:13.283Z,5.72
2023-03-25T20:55:10.276Z,5.62
2023-03-25T20:57:43.279Z,5.55
2023-03-25T21:00:27.405Z,5.50
2023-03-25T21:03:02.139Z,5.49
2023-03-25T21:05:55.642Z,5.47
2023-03-25T21:13:18.673Z,5.45
2023-03-25T21:16:17.649Z,5.46
2023-03-25T21:25:56.216Z,5.65
2023-03-25T21:35:17.896Z,5.81
2023-03-25T22:12:51.771Z,5.89
2023-03-25T22:16:03.620Z,5.94
2023-03-25T22:25:46.891Z,6.00
2023-03-25T22:32:45.485Z,6.05
2023-03-25T22:35:48.653Z,6.09
2023-03-25T22:39:14.845Z,6.11
2023-03-25T22:42:25.859Z,6.17
2023-03-25T22:46:18.506Z,6.20
2023-03-25T22:49:59.856Z,6.23
2023-03-25T22:56:26.834Z,6.23
2023-03-25T23:00:03.744Z,6.26
2023-03-25T23:13:30.266Z,6.27
2023-03-25T23:23:58.350Z,6.29
2023-03-25T23:26:54.581Z,6.30
2023-03-25T23:30:39.448Z,6.34
2023-03-25T23:33:54.149Z,6.38
2023-03-25T23:36:48.854Z,6.42
2023-03-25T23:40:18.767Z,6.48
2023-03-25T23:44:07.726Z,6.49
2023-03-25T23:48:11.968Z,6.51
2023-03-25T23:51:28.975Z,6.48
2023-03-25T23:54:51.656Z,6.44
2023-03-25T23:57:20.986Z,6.40
